createdAt,value
2019-05-15T00:00:15.374Z,2.33
2019-05-15T00:02:42.950Z,2.67
2019-05-15T00:05:11.271Z,2.93
2019-05-15T00:07:39.424Z,2.30
2019-05-15T00:10:08.548Z,2.50
2019-05-15T00:12:34.045Z,3.20
2019-05-15T00:15:02.412Z,2.40
2019-05-15T00:17:30.839Z,2.50
2019-05-15T00:19:58.377Z,2.33
2019-05-15T00:22:29.000Z,2.20
2019-05-15T00:24:54.765Z,2.33
2019-05-15T00:27:22.309Z,2.93
2019-05-15T00:29:49.869Z,2.30
2019-05-15T00:32:18.608Z,2.40
2019-05-15T00:34:45.018Z,2.63
2019-05-15T00:37:12.685Z,2.60
2019-05-15T00:39:40.223Z,2.70
2019-05-15T00:42:08.491Z,2.77
2019-05-15T00:44:38.704Z,2.23
2019-05-15T00:47:05.344Z,2.43
2019-05-15T00:49:32.824Z,2.10
2019-05-15T00:52:01.064Z,2.33
2019-05-15T00:54:28.637Z,2.07
2019-05-15T00:56:57.963Z,2.20
2019-05-15T00:59:26.901Z,2.73
2019-05-15T01:01:51.340Z,2.03
2019-05-15T01:04:18.943Z,2.43
2019-05-15T01:06:48.749Z,2.30
2019-05-15T01:09:18.523Z,2.50
2019-05-15T01:11:43.772Z,2.40
2019-05-15T01:14:12.338Z,2.33
2019-05-15T01:16:39.616Z,2.27
2019-05-15T01:19:09.229Z,2.30
2019-05-15T01:21:38.394Z,2.50
2019-05-15T01:24:03.924Z,2.07
2019-05-15T01:26:32.783Z,2.37
2019-05-15T01:29:00.277Z,2.37
2019-05-15T01:31:28.538Z,2.43
2019-05-15T01:33:55.398Z,2.30
2019-05-15T01:36:22.963Z,2.50
2019-05-15T01:38:51.252Z,2.50
2019-05-15T01:41:19.053Z,2.50
2019-05-15T01:43:49.003Z,2.40
2019-05-15T01:46:16.197Z,2.40
2019-05-15T01:48:43.751Z,2.60
2019-05-15T01:51:11.254Z,2.20
2019-05-15T01:53:38.905Z,2.43
2019-05-15T01:56:08.463Z,2.33
2019-05-15T01:58:34.823Z,2.17
2019-05-15T02:01:02.402Z,2.40
2019-05-15T02:03:29.991Z,2.10
2019-05-15T02:05:58.758Z,2.10
2019-05-15T02:08:28.255Z,3.03
2019-05-15T02:10:55.309Z,2.03
2019-05-15T02:13:22.873Z,2.17
2019-05-15T02:15:50.364Z,2.10
2019-05-15T02:18:19.266Z,2.03
2019-05-15T02:20:46.272Z,2.30
2019-05-15T02:23:13.881Z,1.87
2019-05-15T02:25:41.522Z,2.00
2019-05-15T02:28:09.577Z,1.90
2019-05-15T02:30:40.511Z,2.40
2019-05-15T02:33:05.006Z,1.93
2019-05-15T02:35:33.629Z,2.10
2019-05-15T02:38:01.907Z,2.30
2019-05-15T02:40:30.279Z,2.00
2019-05-15T02:42:59.180Z,2.10
2019-05-15T02:45:25.295Z,2.60
2019-05-15T02:47:52.792Z,2.00
2019-05-15T02:50:21.037Z,2.53
2019-05-15T02:52:49.733Z,2.43
2019-05-15T02:55:16.163Z,2.33
2019-05-15T02:57:43.988Z,2.17
2019-05-15T03:00:30.247Z,2.17
2019-05-15T03:02:41.174Z,2.43
2019-05-15T03:05:09.279Z,2.10
2019-05-15T03:07:35.030Z,2.50
2019-05-15T03:10:02.534Z,2.10
2019-05-15T03:12:30.032Z,2.03
2019-05-15T03:14:59.830Z,1.73
2019-05-15T03:17:25.045Z,2.17
2019-05-15T03:19:52.645Z,2.07
2019-05-15T03:22:20.907Z,2.23
2019-05-15T03:24:50.321Z,2.20
2019-05-15T03:27:19.414Z,1.90
2019-05-15T03:29:45.134Z,2.00
2019-05-15T03:32:25.382Z,1.90
2019-05-15T03:34:47.312Z,2.43
2019-05-15T03:37:12.021Z,1.63
2019-05-15T03:39:39.301Z,2.13
2019-05-15T03:42:09.447Z,2.50
2019-05-15T03:44:34.942Z,2.40
2019-05-15T03:47:02.409Z,2.00
2019-05-15T03:49:30.789Z,2.20
2019-05-15T03:51:58.938Z,2.13
2019-05-15T03:54:29.151Z,2.40
2019-05-15T03:56:54.208Z,2.00
2019-05-15T03:59:22.551Z,2.20
2019-05-15T04:01:50.172Z,1.90
2019-05-15T04:04:18.925Z,2.37
2019-05-15T04:06:45.294Z,2.07
2019-05-15T04:09:13.741Z,1.93
2019-05-15T04:11:41.994Z,2.33
2019-05-15T04:14:10.327Z,1.80
2019-05-15T04:16:39.018Z,2.33
2019-05-15T04:19:05.641Z,2.10
2019-05-15T04:21:33.901Z,2.40
2019-05-15T04:24:01.492Z,2.20
2019-05-15T04:26:29.091Z,2.27
2019-05-15T04:28:59.871Z,2.40
2019-05-15T04:31:24.069Z,2.03
2019-05-15T04:33:51.732Z,2.20
2019-05-15T04:36:20.169Z,1.90
2019-05-15T04:38:49.826Z,2.00
2019-05-15T04:41:15.131Z,2.23
2019-05-15T04:43:44.990Z,2.50
2019-05-15T04:46:10.990Z,2.43
2019-05-15T04:48:39.964Z,2.00
2019-05-15T04:51:09.702Z,2.20
2019-05-15T04:53:39.120Z,2.33
2019-05-15T04:56:03.704Z,2.10
2019-05-15T04:58:33.375Z,2.47
2019-05-15T05:01:01.807Z,2.03
2019-05-15T05:03:29.619Z,2.43
2019-05-15T05:05:59.121Z,2.33
2019-05-15T05:08:28.692Z,1.90
2019-05-15T05:10:53.628Z,2.80
2019-05-15T05:13:21.119Z,2.33
2019-05-15T05:15:50.007Z,2.20
2019-05-15T05:18:18.838Z,1.93
2019-05-15T05:20:44.695Z,2.20
2019-05-15T05:23:13.047Z,2.00
2019-05-15T05:25:40.715Z,2.40
2019-05-15T05:28:09.811Z,2.20
2019-05-15T05:30:38.594Z,2.40
2019-05-15T05:33:05.638Z,1.93
2019-05-15T05:35:33.218Z,2.00
2019-05-15T05:38:00.697Z,2.20
2019-05-15T05:40:29.299Z,2.03
2019-05-15T05:42:55.684Z,2.03
2019-05-15T05:45:23.293Z,2.43
2019-05-15T05:47:50.860Z,2.10
2019-05-15T05:50:24.765Z,1.87
2019-05-15T05:52:52.308Z,2.20
2019-05-15T05:55:19.829Z,2.60
2019-05-15T05:57:48.701Z,2.37
2019-05-15T06:00:15.221Z,2.30
2019-05-15T06:02:47.778Z,2.63
2019-05-15T06:05:11.160Z,2.30
2019-05-15T06:07:38.983Z,2.30
2019-05-15T06:10:08.622Z,2.20
2019-05-15T06:12:33.684Z,2.30
2019-05-15T06:15:02.179Z,1.93
2019-05-15T06:17:29.881Z,2.53
2019-05-15T06:19:58.626Z,2.33
2019-05-15T06:22:27.688Z,2.40
2019-05-15T06:24:54.227Z,2.40
2019-05-15T06:27:21.787Z,2.20
2019-05-15T06:29:49.264Z,2.17
2019-05-15T06:32:19.339Z,2.30
2019-05-15T06:34:45.324Z,2.10
2019-05-15T06:37:12.799Z,2.40
2019-05-15T06:39:41.145Z,2.17
2019-05-15T06:42:08.872Z,2.00
2019-05-15T06:44:36.177Z,2.13
2019-05-15T06:47:04.644Z,2.10
2019-05-15T06:49:32.131Z,1.97
2019-05-15T06:51:59.620Z,2.07
2019-05-15T06:54:28.394Z,1.93
2019-05-15T06:56:58.184Z,2.10
2019-05-15T06:59:23.995Z,2.07
2019-05-15T07:01:51.896Z,2.10
2019-05-15T07:04:20.156Z,2.00
2019-05-15T07:06:48.930Z,1.60
2019-05-15T07:09:17.820Z,2.00
2019-05-15T07:11:43.439Z,1.73
2019-05-15T07:14:10.940Z,1.80
2019-05-15T07:16:39.222Z,2.13
2019-05-15T07:19:08.321Z,1.80
2019-05-15T07:21:34.968Z,2.17
2019-05-15T07:24:02.460Z,1.80
2019-05-15T07:26:30.841Z,1.90
2019-05-15T07:28:59.530Z,1.63
2019-05-15T07:31:28.808Z,1.70
2019-05-15T07:33:54.620Z,1.80
2019-05-15T07:36:22.185Z,2.17
2019-05-15T07:38:49.749Z,1.70
2019-05-15T07:41:18.480Z,1.50
2019-05-15T07:43:45.595Z,2.17
2019-05-15T07:46:13.167Z,1.60
2019-05-15T07:48:43.881Z,1.90
2019-05-15T07:51:11.447Z,1.70
2019-05-15T07:53:38.402Z,1.60
2019-05-15T07:56:06.080Z,1.40
2019-05-15T07:58:33.651Z,1.70
2019-05-15T08:01:01.310Z,1.70
2019-05-15T08:03:29.347Z,1.63
2019-05-15T08:06:02.142Z,1.53
2019-05-15T08:08:24.210Z,1.40
2019-05-15T08:10:51.774Z,1.80
2019-05-15T08:13:19.671Z,1.30
2019-05-15T08:15:49.061Z,2.03
2019-05-15T08:18:18.036Z,1.87
2019-05-15T08:20:45.304Z,1.50
2019-05-15T08:23:13.026Z,1.40
2019-05-15T08:25:40.555Z,1.40
2019-05-15T08:28:08.798Z,1.60
2019-05-15T08:30:35.587Z,1.60
2019-05-15T08:33:04.437Z,1.40
2019-05-15T08:35:32.058Z,1.47
2019-05-15T08:38:00.422Z,1.47
2019-05-15T08:40:28.482Z,1.63
2019-05-15T08:43:01.234Z,1.70
2019-05-15T08:45:23.808Z,1.67
2019-05-15T08:47:51.334Z,1.50
2019-05-15T08:50:18.816Z,1.73
2019-05-15T08:52:48.516Z,1.60
2019-05-15T08:55:14.668Z,1.73
2019-05-15T08:57:42.251Z,1.57
2019-05-15T09:00:10.051Z,1.70
2019-05-15T09:02:38.254Z,1.50
2019-05-15T09:05:08.286Z,1.43
2019-05-15T09:07:33.163Z,1.50
2019-05-15T09:10:01.107Z,1.80
2019-05-15T09:12:29.492Z,1.43
2019-05-15T09:14:58.102Z,1.67
2019-05-15T09:17:23.790Z,1.50
2019-05-15T09:19:51.355Z,1.70
2019-05-15T09:22:18.961Z,1.57
2019-05-15T09:24:48.869Z,1.70
2019-05-15T09:27:18.409Z,1.57
2019-05-15T09:29:44.887Z,1.50
2019-05-15T09:32:12.676Z,1.30
2019-05-15T09:34:50.505Z,1.60
2019-05-15T09:37:08.563Z,1.47
2019-05-15T09:39:34.969Z,1.90
2019-05-15T09:42:04.239Z,1.63
2019-05-15T09:44:31.799Z,1.60
2019-05-15T09:46:59.427Z,1.93
2019-05-15T09:49:28.596Z,1.50
2019-05-15T09:51:54.823Z,2.13
2019-05-15T09:54:25.445Z,1.70
2019-05-15T09:56:50.753Z,2.33
2019-05-15T09:59:18.743Z,2.80
2019-05-15T10:01:48.109Z,1.80
2019-05-15T10:04:14.165Z,2.17
2019-05-15T10:06:41.841Z,2.10
2019-05-15T10:09:10.203Z,1.93
2019-05-15T10:11:38.317Z,1.60
2019-05-15T10:14:06.039Z,1.77
2019-05-15T10:16:33.750Z,1.63
2019-05-15T10:19:01.999Z,1.90
2019-05-15T10:21:32.627Z,1.87
2019-05-15T10:23:59.057Z,1.73
2019-05-15T10:26:25.629Z,1.47
2019-05-15T10:28:53.106Z,1.60
2019-05-15T10:31:21.464Z,1.60
2019-05-15T10:33:49.236Z,1.83
2019-05-15T10:36:18.863Z,1.90
2019-05-15T10:38:45.608Z,2.10
2019-05-15T10:41:15.223Z,1.67
2019-05-15T10:43:46.347Z,1.70
2019-05-15T10:46:13.024Z,1.80
2019-05-15T10:48:38.391Z,1.80
2019-05-15T10:51:07.140Z,1.50
2019-05-15T10:53:32.730Z,1.77
2019-05-15T10:56:02.749Z,1.60
2019-05-15T10:58:29.395Z,1.60
2019-05-15T11:01:01.801Z,1.60
2019-05-15T11:03:24.823Z,1.40
2019-05-15T11:05:52.371Z,1.20
2019-05-15T11:08:19.866Z,1.47
2019-05-15T11:10:49.456Z,1.60
2019-05-15T11:13:18.603Z,1.50
2019-05-15T11:15:44.871Z,1.47
2019-05-15T11:18:12.950Z,1.90
2019-05-15T11:20:41.305Z,1.30
2019-05-15T11:23:08.789Z,1.53
2019-05-15T11:25:37.768Z,1.60
2019-05-15T11:28:04.050Z,1.50
2019-05-15T11:30:31.723Z,1.53
2019-05-15T11:32:59.505Z,1.60
2019-05-15T11:35:28.506Z,1.90
2019-05-15T11:37:57.130Z,1.70
2019-05-15T11:40:23.692Z,1.90
2019-05-15T11:42:51.270Z,1.63
2019-05-15T11:45:18.853Z,1.60
2019-05-15T11:47:48.301Z,1.70
2019-05-15T11:50:13.843Z,1.60
2019-05-15T11:52:41.360Z,1.60
2019-05-15T11:55:09.610Z,1.60
2019-05-15T11:57:46.100Z,1.33
2019-05-15T12:00:14.922Z,1.37
2019-05-15T12:02:34.674Z,1.70
2019-05-15T12:05:03.037Z,1.60
2019-05-15T12:07:30.556Z,1.70
2019-05-15T12:09:58.181Z,1.43
2019-05-15T12:12:31.244Z,1.60
2019-05-15T12:14:54.900Z,1.80
2019-05-15T12:17:22.385Z,1.40
2019-05-15T12:20:04.699Z,1.47
2019-05-15T12:22:17.429Z,1.57
2019-05-15T12:24:49.533Z,1.80
2019-05-15T12:27:18.225Z,2.05
2019-05-15T12:29:41.875Z,1.90
2019-05-15T12:34:38.844Z,1.90
2019-05-15T12:37:04.673Z,1.93
2019-05-15T12:39:32.329Z,2.00
2019-05-15T13:01:43.338Z,1.80
2019-05-15T13:04:10.934Z,1.90
2019-05-15T13:06:47.856Z,2.23
2019-05-15T13:09:08.686Z,1.90
2019-05-15T13:11:35.294Z,2.10
2019-05-15T13:14:04.887Z,2.00
2019-05-15T13:16:32.431Z,1.90
2019-05-15T13:19:00.575Z,1.87
2019-05-15T13:21:29.657Z,1.50
2019-05-15T13:23:58.526Z,1.50
2019-05-15T13:26:27.075Z,1.90
2019-05-15T13:28:52.744Z,2.20
2019-05-15T13:31:21.100Z,1.73
2019-05-15T13:33:48.575Z,1.50
2019-05-15T13:36:19.690Z,2.22
2019-05-15T13:38:44.500Z,1.73
2019-05-15T13:41:12.063Z,2.20
2019-05-15T13:43:39.571Z,1.50
2019-05-15T13:46:08.779Z,1.80
2019-05-15T13:48:35.269Z,1.63
2019-05-15T13:51:04.155Z,1.90
2019-05-15T13:53:32.959Z,2.10
2019-05-15T13:56:00.529Z,2.00
2019-05-15T13:58:28.399Z,1.57
2019-05-15T14:00:58.878Z,2.07
2019-05-15T14:03:24.962Z,2.10
2019-05-15T14:05:54.701Z,2.13
2019-05-15T14:08:22.947Z,2.13
2019-05-15T14:10:50.441Z,2.63
2019-05-15T14:13:18.998Z,1.80
2019-05-15T14:15:48.624Z,1.80
2019-05-15T14:18:15.565Z,1.75
2019-05-15T14:20:43.642Z,2.03
2019-05-15T14:23:11.201Z,2.47
2019-05-15T14:25:39.034Z,1.87
2019-05-15T14:28:08.763Z,2.20
2019-05-15T14:30:35.622Z,2.30
2019-05-15T14:33:04.535Z,2.00
2019-05-15T14:35:32.047Z,2.00
2019-05-15T14:38:05.977Z,2.00
2019-05-15T14:40:29.125Z,2.87
2019-05-15T14:42:59.307Z,2.43
2019-05-15T14:45:25.117Z,2.87
2019-05-15T14:47:52.677Z,2.13
2019-05-15T14:50:20.298Z,2.60
2019-05-15T14:52:48.099Z,1.90
2019-05-15T14:55:15.317Z,1.70
2019-05-15T14:57:42.797Z,2.17
2019-05-15T15:00:10.395Z,2.33
2019-05-15T15:02:39.209Z,1.83
2019-05-15T15:05:08.689Z,1.60
2019-05-15T15:07:33.671Z,1.90
2019-05-15T15:10:01.992Z,1.80
2019-05-15T15:12:29.526Z,1.70
2019-05-15T15:14:57.014Z,2.13
2019-05-15T15:17:24.532Z,1.80
2019-05-15T15:19:53.041Z,2.20
2019-05-15T15:22:20.043Z,2.00
2019-05-15T15:24:48.393Z,2.07
2019-05-15T15:27:17.196Z,1.57
2019-05-15T15:29:48.179Z,1.60
2019-05-15T15:32:15.078Z,1.60
2019-05-15T15:34:43.919Z,2.37
2019-05-15T15:37:11.647Z,1.53
2019-05-15T15:39:39.234Z,2.00
2019-05-15T15:42:08.603Z,2.10
2019-05-15T15:44:37.994Z,2.07
2019-05-15T15:47:05.283Z,1.67
2019-05-15T15:49:34.110Z,1.93
2019-05-15T15:52:03.998Z,2.07
2019-05-15T15:54:32.900Z,1.87
2019-05-15T15:57:01.789Z,1.90
2019-05-15T15:59:30.701Z,1.80
2019-05-15T16:01:59.917Z,1.63
2019-05-15T16:04:28.195Z,1.50
2019-05-15T16:06:55.305Z,2.00
2019-05-15T16:09:24.208Z,2.00
2019-05-15T16:11:53.101Z,2.00
2019-05-15T16:14:21.936Z,1.97
2019-05-15T16:16:50.787Z,2.13
2019-05-15T16:19:19.616Z,1.77
2019-05-15T16:21:49.135Z,2.10
2019-05-15T16:24:21.291Z,1.90
2019-05-15T16:26:46.241Z,1.80
2019-05-15T16:29:16.242Z,1.97
2019-05-15T16:31:44.370Z,1.80
2019-05-15T16:34:13.209Z,2.43
2019-05-15T16:36:42.073Z,2.13
2019-05-15T16:39:11.958Z,2.17
2019-05-15T16:41:39.985Z,2.37
2019-05-15T16:44:08.829Z,2.40
2019-05-15T16:46:39.090Z,2.00
2019-05-15T16:49:06.760Z,2.20
2019-05-15T16:51:38.084Z,2.07
2019-05-15T16:54:04.998Z,1.70
2019-05-15T16:56:36.452Z,1.50
2019-05-15T16:59:03.663Z,1.90
2019-05-15T17:01:32.503Z,1.93
2019-05-15T17:04:01.439Z,2.17
2019-05-15T17:06:30.334Z,1.80
2019-05-15T17:08:59.154Z,1.90
2019-05-15T17:11:28.893Z,1.73
2019-05-15T17:13:59.137Z,1.70
2019-05-15T17:16:25.824Z,1.77
2019-05-15T17:18:54.707Z,1.90
2019-05-15T17:21:23.541Z,1.70
2019-05-15T17:23:52.382Z,2.20
2019-05-15T17:26:21.317Z,1.70
2019-05-15T17:28:50.183Z,2.27
2019-05-15T17:31:19.004Z,2.10
2019-05-15T17:33:48.780Z,1.80
2019-05-15T17:36:14.186Z,2.27
2019-05-15T17:38:41.684Z,2.23
2019-05-15T17:41:09.307Z,1.97
2019-05-15T17:43:37.932Z,1.77
2019-05-15T17:46:04.443Z,2.40
2019-05-15T17:48:31.985Z,2.33
2019-05-15T17:50:59.593Z,2.17
2019-05-15T17:53:28.848Z,2.40
2019-05-15T17:55:58.453Z,2.40
2019-05-15T17:58:24.633Z,2.07
2019-05-15T18:00:52.130Z,2.97
2019-05-15T18:03:19.609Z,2.40
2019-05-15T18:05:48.393Z,2.33
2019-05-15T18:08:15.503Z,2.43
2019-05-15T18:10:43.049Z,2.53
2019-05-15T18:13:11.652Z,1.80
2019-05-15T18:15:41.689Z,2.03
2019-05-15T18:18:10.042Z,2.13
2019-05-15T18:20:38.443Z,2.50
2019-05-15T18:23:05.038Z,2.47
2019-05-15T18:25:32.532Z,2.43
2019-05-15T18:28:02.255Z,2.23
2019-05-15T18:30:29.730Z,2.70
2019-05-15T18:32:58.848Z,2.47
2019-05-15T18:35:26.293Z,1.80
2019-05-15T18:37:55.377Z,2.10
2019-05-15T18:40:22.934Z,2.40
2019-05-15T18:42:50.494Z,3.73
2019-05-15T18:45:18.372Z,2.90
2019-05-15T18:47:47.694Z,2.43
2019-05-15T18:50:14.465Z,2.10
2019-05-15T18:52:42.055Z,2.23
2019-05-15T18:55:09.537Z,2.10
2019-05-15T18:57:38.670Z,2.20
2019-05-15T19:00:05.693Z,2.40
2019-05-15T19:02:33.174Z,2.13
2019-05-15T19:05:01.428Z,1.93
2019-05-15T19:07:29.004Z,2.20
2019-05-15T19:09:58.127Z,1.90
2019-05-15T19:12:28.265Z,1.80
2019-05-15T19:14:54.774Z,2.00
2019-05-15T19:17:22.332Z,2.13
2019-05-15T19:19:50.194Z,1.83
2019-05-15T19:22:19.252Z,1.90
2019-05-15T19:24:45.391Z,2.30
2019-05-15T19:27:13.202Z,1.83
2019-05-15T19:29:40.684Z,1.83
2019-05-15T19:32:11.149Z,1.60
2019-05-15T19:34:38.852Z,2.10
2019-05-15T19:37:07.029Z,1.70
2019-05-15T19:39:34.743Z,2.00
2019-05-15T19:42:04.137Z,1.80
2019-05-15T19:44:31.640Z,1.90
2019-05-15T19:46:59.140Z,1.60
2019-05-15T19:49:26.741Z,1.60
2019-05-15T19:51:55.011Z,1.70
2019-05-15T19:54:23.571Z,1.70
2019-05-15T19:56:51.738Z,1.40
2019-05-15T19:59:22.514Z,1.80
2019-05-15T20:01:48.589Z,1.77
2019-05-15T20:04:14.377Z,1.70
2019-05-15T20:06:42.652Z,1.90
2019-05-15T20:09:11.010Z,1.33
2019-05-15T20:11:39.266Z,1.57
2019-05-15T20:14:06.864Z,1.90
2019-05-15T20:16:34.520Z,1.70
2019-05-15T20:19:02.098Z,1.80
2019-05-15T20:21:30.691Z,1.90
2019-05-15T20:23:58.205Z,2.07
2019-05-15T20:26:25.826Z,1.70
2019-05-15T20:28:53.468Z,2.10
2019-05-15T20:31:20.955Z,1.63
2019-05-15T20:34:02.545Z,2.03
2019-05-15T20:36:18.723Z,1.70
2019-05-15T20:38:48.382Z,2.00
2019-05-15T20:41:18.528Z,1.90
2019-05-15T20:43:45.519Z,1.90
2019-05-15T20:46:14.422Z,2.10
2019-05-15T20:48:43.505Z,1.70
2019-05-15T20:51:12.334Z,1.67
2019-05-15T20:53:41.174Z,1.83
2019-05-15T20:56:10.800Z,2.20
2019-05-15T20:58:39.896Z,1.83
2019-05-15T21:01:09.297Z,1.90
2019-05-15T21:03:36.264Z,2.03
2019-05-15T21:06:05.374Z,1.70
2019-05-15T21:08:34.295Z,1.90
2019-05-15T21:11:03.861Z,2.10
2019-05-15T21:13:32.860Z,2.07
2019-05-15T21:16:01.751Z,2.03
2019-05-15T21:18:30.646Z,1.98
2019-05-15T21:20:59.497Z,2.27
2019-05-15T21:23:28.644Z,1.80
2019-05-15T21:25:59.085Z,2.00
2019-05-15T21:28:27.782Z,1.83
2019-05-15T21:30:55.231Z,2.40
2019-05-15T21:33:24.748Z,2.00
2019-05-15T21:35:53.606Z,2.70
2019-05-15T21:38:22.441Z,2.30
2019-05-15T21:40:51.274Z,2.90
2019-05-15T21:43:20.206Z,2.40
2019-05-15T21:45:49.042Z,2.80
2019-05-15T21:48:18.621Z,2.50
2019-05-15T21:50:48.365Z,2.60
2019-05-15T21:53:17.648Z,2.50
2019-05-15T21:55:45.306Z,2.13
2019-05-15T21:58:14.140Z,1.97
2019-05-15T22:00:42.968Z,2.37
2019-05-15T22:03:11.784Z,2.00
2019-05-15T22:05:40.622Z,2.13
2019-05-15T22:08:09.462Z,2.27
2019-05-15T22:10:38.814Z,2.20
2019-05-15T22:13:07.155Z,2.30
2019-05-15T22:15:36.160Z,2.30
2019-05-15T22:18:04.991Z,2.07
2019-05-15T22:20:33.949Z,2.40
2019-05-15T22:23:03.551Z,2.10
2019-05-15T22:25:32.436Z,2.40
2019-05-15T22:28:01.285Z,2.67
2019-05-15T22:30:30.474Z,2.63
2019-05-15T22:32:58.985Z,2.30
2019-05-15T22:35:29.462Z,2.37
2019-05-15T22:37:58.402Z,2.73
2019-05-15T22:40:25.623Z,2.27
2019-05-15T22:42:54.606Z,2.30
2019-05-15T22:45:23.451Z,2.30
2019-05-15T22:47:52.385Z,2.10
2019-05-15T22:50:21.390Z,2.37
2019-05-15T22:52:50.294Z,2.80
2019-05-15T22:55:19.173Z,1.93
2019-05-15T22:57:48.312Z,2.67
2019-05-15T23:00:16.971Z,2.73
2019-05-15T23:02:48.571Z,2.53
2019-05-15T23:05:24.951Z,2.10
2019-05-15T23:07:43.570Z,2.70
2019-05-15T23:10:12.422Z,2.70
2019-05-15T23:12:41.244Z,2.07
2019-05-15T23:15:10.126Z,2.30
2019-05-15T23:17:39.125Z,2.77
2019-05-15T23:20:08.698Z,2.37
2019-05-15T23:22:38.607Z,2.70
2019-05-15T23:25:05.687Z,2.50
2019-05-15T23:27:34.707Z,2.93
2019-05-15T23:30:04.322Z,2.60
2019-05-15T23:32:33.210Z,2.60
2019-05-15T23:35:02.114Z,2.40
2019-05-15T23:37:31.019Z,2.70
2019-05-15T23:39:59.852Z,2.80
2019-05-15T23:42:29.364Z,2.50
2019-05-15T23:44:56.309Z,2.47
2019-05-15T23:47:23.805Z,2.30
2019-05-15T23:49:51.367Z,2.60
2019-05-15T23:52:18.909Z,2.57
2019-05-15T23:54:46.423Z,2.97
2019-05-15T23:57:17.818Z,2.40
2019-05-15T23:59:44.308Z,2.80
